sensor_id;sensor_type;location;lat;lon;timestamp;temperature;humidity
5226;DHT22;2632;51.666;7.146;2023-05-14T00:00:44;12.00;99.90
5226;DHT22;2632;51.666;7.146;2023-05-14T00:03:12;12.00;99.90
5226;DHT22;2632;51.666;7.146;2023-05-14T00:05:39;11.90;99.90
5226;DHT22;2632;51.666;7.146;2023-05-14T00:08:06;12.00;99.90
5226;DHT22;2632;51.666;7.146;2023-05-14T00:10:33;12.00;99.90
5226;DHT22;2632;51.666;7.146;2023-05-14T00:13:00;12.00;99.90
5226;DHT22;2632;51.666;7.146;2023-05-14T00:15:26;12.00;99.90
5226;DHT22;2632;51.666;7.146;2023-05-14T00:17:53;11.90;99.90
5226;DHT22;2632;51.666;7.146;2023-05-14T00:20:20;11.90;99.90
5226;DHT22;2632;51.666;7.146;2023-05-14T00:22:47;11.90;99.90
5226;DHT22;2632;51.666;7.146;2023-05-14T00:25:14;11.80;99.90
5226;DHT22;2632;51.666;7.146;2023-05-14T00:27:40;11.70;99.90
5226;DHT22;2632;51.666;7.146;2023-05-14T00:30:07;11.80;99.90
5226;DHT22;2632;51.666;7.146;2023-05-14T00:32:34;11.70;99.90
5226;DHT22;2632;51.666;7.146;2023-05-14T00:35:00;11.60;99.90
5226;DHT22;2632;51.666;7.146;2023-05-14T00:37:29;11.60;99.90
5226;DHT22;2632;51.666;7.146;2023-05-14T00:39:56;11.60;99.90
5226;DHT22;2632;51.666;7.146;2023-05-14T00:42:23;11.60;99.90
5226;DHT22;2632;51.666;7.146;2023-05-14T00:44:50;11.50;99.90
5226;DHT22;2632;51.666;7.146;2023-05-14T00:47:16;11.50;99.90
5226;DHT22;2632;51.666;7.146;2023-05-14T00:49:44;11.50;99.90
5226;DHT22;2632;51.666;7.146;2023-05-14T00:52:11;11.40;99.90
5226;DHT22;2632;51.666;7.146;2023-05-14T00:54:38;11.40;99.90
5226;DHT22;2632;51.666;7.146;2023-05-14T00:57:05;11.40;99.90
5226;DHT22;2632;51.666;7.146;2023-05-14T00:59:32;11.40;99.90
5226;DHT22;2632;51.666;7.146;2023-05-14T01:01:58;11.40;99.90
5226;DHT22;2632;51.666;7.146;2023-05-14T01:04:25;11.30;99.90
5226;DHT22;2632;51.666;7.146;2023-05-14T01:12:16;11.20;99.90
5226;DHT22;2632;51.666;7.146;2023-05-14T01:14:56;11.30;99.90
5226;DHT22;2632;51.666;7.146;2023-05-14T01:17:27;11.20;99.90
5226;DHT22;2632;51.666;7.146;2023-05-14T01:19:55;11.20;99.90
5226;DHT22;2632;51.666;7.146;2023-05-14T01:22:23;11.20;99.90
5226;DHT22;2632;51.666;7.146;2023-05-14T01:24:49;11.20;99.90
5226;DHT22;2632;51.666;7.146;2023-05-14T01:30:28;11.00;99.90
5226;DHT22;2632;51.666;7.146;2023-05-14T01:32:59;10.90;99.90
5226;DHT22;2632;51.666;7.146;2023-05-14T01:35:29;10.90;99.90
5226;DHT22;2632;51.666;7.146;2023-05-14T01:37:59;10.80;99.90
5226;DHT22;2632;51.666;7.146;2023-05-14T01:40:26;10.80;99.90
5226;DHT22;2632;51.666;7.146;2023-05-14T01:42:53;10.80;99.90
5226;DHT22;2632;51.666;7.146;2023-05-14T01:45:23;10.80;99.90
5226;DHT22;2632;51.666;7.146;2023-05-14T01:47:50;10.80;99.90
5226;DHT22;2632;51.666;7.146;2023-05-14T01:50:17;10.80;99.90
5226;DHT22;2632;51.666;7.146;2023-05-14T01:52:44;10.90;99.90
5226;DHT22;2632;51.666;7.146;2023-05-14T01:55:11;10.90;99.90
5226;DHT22;2632;51.666;7.146;2023-05-14T01:57:37;10.90;99.90
5226;DHT22;2632;51.666;7.146;2023-05-14T02:00:06;10.90;99.90
5226;DHT22;2632;51.666;7.146;2023-05-14T02:02:33;10.90;99.90
5226;DHT22;2632;51.666;7.146;2023-05-14T02:04:59;10.90;99.90
5226;DHT22;2632;51.666;7.146;2023-05-14T02:07:26;10.90;99.90
5226;DHT22;2632;51.666;7.146;2023-05-14T02:09:53;10.90;99.90
5226;DHT22;2632;51.666;7.146;2023-05-14T02:12:19;10.80;99.90
5226;DHT22;2632;51.666;7.146;2023-05-14T02:14:46;10.90;99.90
5226;DHT22;2632;51.666;7.146;2023-05-14T02:17:13;10.90;99.90
5226;DHT22;2632;51.666;7.146;2023-05-14T02:19:43;11.00;99.90
5226;DHT22;2632;51.666;7.146;2023-05-14T02:22:10;11.00;99.90
5226;DHT22;2632;51.666;7.146;2023-05-14T02:24:37;10.80;99.90
5226;DHT22;2632;51.666;7.146;2023-05-14T02:27:04;10.70;99.90
5226;DHT22;2632;51.666;7.146;2023-05-14T02:29:30;10.60;99.90
5226;DHT22;2632;51.666;7.146;2023-05-14T02:31:57;10.50;99.90
5226;DHT22;2632;51.666;7.146;2023-05-14T02:34:24;10.50;99.90
5226;DHT22;2632;51.666;7.146;2023-05-14T02:36:50;10.50;99.90
5226;DHT22;2632;51.666;7.146;2023-05-14T02:39:17;10.50;99.90
5226;DHT22;2632;51.666;7.146;2023-05-14T02:41:44;10.50;99.90
5226;DHT22;2632;51.666;7.146;2023-05-14T02:44:10;10.50;99.90
5226;DHT22;2632;51.666;7.146;2023-05-14T02:46:37;10.50;99.90
5226;DHT22;2632;51.666;7.146;2023-05-14T02:49:03;10.40;99.90
5226;DHT22;2632;51.666;7.146;2023-05-14T02:51:30;10.40;99.90
5226;DHT22;2632;51.666;7.146;2023-05-14T02:53:57;10.40;99.90
5226;DHT22;2632;51.666;7.146;2023-05-14T02:56:23;10.30;99.90
5226;DHT22;2632;51.666;7.146;2023-05-14T02:58:50;10.30;99.90
5226;DHT22;2632;51.666;7.146;2023-05-14T03:01:16;10.30;99.90
5226;DHT22;2632;51.666;7.146;2023-05-14T03:03:44;10.30;99.90
5226;DHT22;2632;51.666;7.146;2023-05-14T03:06:11;10.30;99.90
5226;DHT22;2632;51.666;7.146;2023-05-14T03:08:38;10.20;99.90
5226;DHT22;2632;51.666;7.146;2023-05-14T03:11:04;10.20;99.90
5226;DHT22;2632;51.666;7.146;2023-05-14T03:13:32;10.20;99.90
5226;DHT22;2632;51.666;7.146;2023-05-14T03:15:58;10.20;99.90
5226;DHT22;2632;51.666;7.146;2023-05-14T03:18:25;10.20;99.90
5226;DHT22;2632;51.666;7.146;2023-05-14T03:20:53;10.20;99.90
5226;DHT22;2632;51.666;7.146;2023-05-14T03:23:20;10.20;99.90
5226;DHT22;2632;51.666;7.146;2023-05-14T03:25:46;10.10;99.90
5226;DHT22;2632;51.666;7.146;2023-05-14T03:28:13;10.20;99.90
5226;DHT22;2632;51.666;7.146;2023-05-14T03:30:40;10.10;99.90
5226;DHT22;2632;51.666;7.146;2023-05-14T03:33:06;10.10;99.90
5226;DHT22;2632;51.666;7.146;2023-05-14T03:35:33;10.00;99.90
5226;DHT22;2632;51.666;7.146;2023-05-14T03:37:59;10.00;99.90
5226;DHT22;2632;51.666;7.146;2023-05-14T03:40:26;10.00;99.90
5226;DHT22;2632;51.666;7.146;2023-05-14T03:42:53;10.10;99.90
5226;DHT22;2632;51.666;7.146;2023-05-14T03:45:19;10.20;99.90
5226;DHT22;2632;51.666;7.146;2023-05-14T03:47:46;10.10;99.90
5226;DHT22;2632;51.666;7.146;2023-05-14T03:50:13;10.00;99.90
5226;DHT22;2632;51.666;7.146;2023-05-14T03:52:39;10.00;99.90
5226;DHT22;2632;51.666;7.146;2023-05-14T03:55:07;9.90;99.90
5226;DHT22;2632;51.666;7.146;2023-05-14T03:57:33;9.90;99.90
5226;DHT22;2632;51.666;7.146;2023-05-14T04:00:00;10.00;99.90
5226;DHT22;2632;51.666;7.146;2023-05-14T04:02:26;10.00;99.90
5226;DHT22;2632;51.666;7.146;2023-05-14T04:04:53;10.00;99.90
5226;DHT22;2632;51.666;7.146;2023-05-14T04:07:20;9.90;99.90
5226;DHT22;2632;51.666;7.146;2023-05-14T04:09:46;9.90;99.90
5226;DHT22;2632;51.666;7.146;2023-05-14T04:12:13;10.00;99.90
5226;DHT22;2632;51.666;7.146;2023-05-14T04:14:40;10.00;99.90
5226;DHT22;2632;51.666;7.146;2023-05-14T04:17:07;10.00;99.90
5226;DHT22;2632;51.666;7.146;2023-05-14T04:19:33;9.90;99.90
5226;DHT22;2632;51.666;7.146;2023-05-14T04:22:00;9.80;99.90
5226;DHT22;2632;51.666;7.146;2023-05-14T04:24:27;9.80;99.90
5226;DHT22;2632;51.666;7.146;2023-05-14T04:26:53;9.80;99.90
5226;DHT22;2632;51.666;7.146;2023-05-14T04:29:20;9.90;99.90
5226;DHT22;2632;51.666;7.146;2023-05-14T04:31:48;9.90;99.90
5226;DHT22;2632;51.666;7.146;2023-05-14T04:34:15;10.00;99.90
5226;DHT22;2632;51.666;7.146;2023-05-14T04:36:41;10.20;99.90
5226;DHT22;2632;51.666;7.146;2023-05-14T04:39:08;10.30;99.90
5226;DHT22;2632;51.666;7.146;2023-05-14T04:41:35;10.20;99.90
5226;DHT22;2632;51.666;7.146;2023-05-14T04:44:02;10.20;99.90
5226;DHT22;2632;51.666;7.146;2023-05-14T04:46:29;10.20;99.90
5226;DHT22;2632;51.666;7.146;2023-05-14T04:48:55;10.30;99.90
5226;DHT22;2632;51.666;7.146;2023-05-14T04:51:23;10.40;99.90
5226;DHT22;2632;51.666;7.146;2023-05-14T04:53:49;10.40;99.90
5226;DHT22;2632;51.666;7.146;2023-05-14T04:56:16;10.50;99.90
5226;DHT22;2632;51.666;7.146;2023-05-14T04:58:43;10.50;99.90
5226;DHT22;2632;51.666;7.146;2023-05-14T05:01:09;10.60;99.90
5226;DHT22;2632;51.666;7.146;2023-05-14T05:03:36;10.60;99.90
5226;DHT22;2632;51.666;7.146;2023-05-14T05:06:03;10.60;99.90
5226;DHT22;2632;51.666;7.146;2023-05-14T05:08:29;10.50;99.90
5226;DHT22;2632;51.666;7.146;2023-05-14T05:10:56;10.60;99.90
5226;DHT22;2632;51.666;7.146;2023-05-14T05:13:23;10.50;99.90
5226;DHT22;2632;51.666;7.146;2023-05-14T05:15:49;10.70;99.90
5226;DHT22;2632;51.666;7.146;2023-05-14T05:18:16;10.80;99.90
5226;DHT22;2632;51.666;7.146;2023-05-14T05:20:43;10.80;99.90
5226;DHT22;2632;51.666;7.146;2023-05-14T05:23:09;10.80;99.90
5226;DHT22;2632;51.666;7.146;2023-05-14T05:25:36;10.90;99.90
5226;DHT22;2632;51.666;7.146;2023-05-14T05:28:03;11.00;99.90
5226;DHT22;2632;51.666;7.146;2023-05-14T05:30:29;11.20;99.90
5226;DHT22;2632;51.666;7.146;2023-05-14T05:32:56;11.30;99.90
5226;DHT22;2632;51.666;7.146;2023-05-14T05:35:23;11.40;99.90
5226;DHT22;2632;51.666;7.146;2023-05-14T05:37:49;11.50;99.90
5226;DHT22;2632;51.666;7.146;2023-05-14T05:40:16;11.60;99.90
5226;DHT22;2632;51.666;7.146;2023-05-14T05:42:43;11.60;99.90
5226;DHT22;2632;51.666;7.146;2023-05-14T05:45:10;11.80;99.90
5226;DHT22;2632;51.666;7.146;2023-05-14T05:47:36;11.90;99.90
5226;DHT22;2632;51.666;7.146;2023-05-14T05:50:03;12.00;99.90
5226;DHT22;2632;51.666;7.146;2023-05-14T05:52:30;12.00;99.90
5226;DHT22;2632;51.666;7.146;2023-05-14T05:54:57;12.10;99.90
5226;DHT22;2632;51.666;7.146;2023-05-14T05:57:23;12.20;99.90
5226;DHT22;2632;51.666;7.146;2023-05-14T05:59:52;12.30;99.90
5226;DHT22;2632;51.666;7.146;2023-05-14T06:02:19;12.40;99.90
5226;DHT22;2632;51.666;7.146;2023-05-14T06:04:45;12.40;99.90
5226;DHT22;2632;51.666;7.146;2023-05-14T06:07:12;12.50;99.90
5226;DHT22;2632;51.666;7.146;2023-05-14T06:09:39;12.60;99.90
5226;DHT22;2632;51.666;7.146;2023-05-14T06:12:05;12.70;99.90
5226;DHT22;2632;51.666;7.146;2023-05-14T06:14:32;12.90;99.90
5226;DHT22;2632;51.666;7.146;2023-05-14T06:16:59;13.00;99.90
5226;DHT22;2632;51.666;7.146;2023-05-14T06:19:26;13.00;99.90
5226;DHT22;2632;51.666;7.146;2023-05-14T06:21:52;13.10;99.90
5226;DHT22;2632;51.666;7.146;2023-05-14T06:24:19;13.20;99.90
5226;DHT22;2632;51.666;7.146;2023-05-14T06:26:46;13.30;99.90
5226;DHT22;2632;51.666;7.146;2023-05-14T06:29:14;13.40;99.90
5226;DHT22;2632;51.666;7.146;2023-05-14T06:31:41;13.50;99.90
5226;DHT22;2632;51.666;7.146;2023-05-14T06:34:07;13.70;99.90
5226;DHT22;2632;51.666;7.146;2023-05-14T06:36:34;13.80;99.90
5226;DHT22;2632;51.666;7.146;2023-05-14T06:39:01;13.80;99.90
5226;DHT22;2632;51.666;7.146;2023-05-14T06:41:28;13.90;99.90
5226;DHT22;2632;51.666;7.146;2023-05-14T06:43:55;14.00;99.90
5226;DHT22;2632;51.666;7.146;2023-05-14T06:46:22;14.10;99.90
5226;DHT22;2632;51.666;7.146;2023-05-14T06:48:48;14.20;99.90
5226;DHT22;2632;51.666;7.146;2023-05-14T06:51:15;14.30;99.90
5226;DHT22;2632;51.666;7.146;2023-05-14T06:53:42;14.50;99.90
5226;DHT22;2632;51.666;7.146;2023-05-14T06:56:08;14.60;99.90
5226;DHT22;2632;51.666;7.146;2023-05-14T06:58:35;14.80;99.90
5226;DHT22;2632;51.666;7.146;2023-05-14T07:01:01;14.80;99.90
5226;DHT22;2632;51.666;7.146;2023-05-14T07:03:28;14.80;99.90
5226;DHT22;2632;51.666;7.146;2023-05-14T07:05:55;14.90;99.90
5226;DHT22;2632;51.666;7.146;2023-05-14T07:08:21;15.00;99.90
5226;DHT22;2632;51.666;7.146;2023-05-14T07:10:48;15.30;99.90
5226;DHT22;2632;51.666;7.146;2023-05-14T07:13:14;15.30;99.90
5226;DHT22;2632;51.666;7.146;2023-05-14T07:15:41;15.30;99.90
5226;DHT22;2632;51.666;7.146;2023-05-14T07:18:07;15.30;99.90
5226;DHT22;2632;51.666;7.146;2023-05-14T07:20:34;15.50;99.90
5226;DHT22;2632;51.666;7.146;2023-05-14T07:23:01;15.70;99.90
5226;DHT22;2632;51.666;7.146;2023-05-14T07:25:27;15.70;99.90
5226;DHT22;2632;51.666;7.146;2023-05-14T07:27:54;15.70;99.90
5226;DHT22;2632;51.666;7.146;2023-05-14T07:30:21;15.90;99.90
5226;DHT22;2632;51.666;7.146;2023-05-14T07:32:48;16.00;99.90
5226;DHT22;2632;51.666;7.146;2023-05-14T07:35:15;16.10;99.90
5226;DHT22;2632;51.666;7.146;2023-05-14T07:37:41;16.20;99.90
5226;DHT22;2632;51.666;7.146;2023-05-14T07:40:09;16.30;99.90
5226;DHT22;2632;51.666;7.146;2023-05-14T07:42:35;16.40;99.90
5226;DHT22;2632;51.666;7.146;2023-05-14T07:45:04;16.70;99.90
5226;DHT22;2632;51.666;7.146;2023-05-14T07:47:31;17.10;99.90
5226;DHT22;2632;51.666;7.146;2023-05-14T07:49:58;17.40;99.90
5226;DHT22;2632;51.666;7.146;2023-05-14T07:52:25;17.80;97.80
5226;DHT22;2632;51.666;7.146;2023-05-14T07:54:51;18.30;96.10
5226;DHT22;2632;51.666;7.146;2023-05-14T07:57:18;18.90;97.90
5226;DHT22;2632;51.666;7.146;2023-05-14T07:59:46;19.50;95.40
5226;DHT22;2632;51.666;7.146;2023-05-14T08:02:13;20.10;92.50
5226;DHT22;2632;51.666;7.146;2023-05-14T08:04:41;20.70;81.30
5226;DHT22;2632;51.666;7.146;2023-05-14T08:07:08;21.20;87.50
5226;DHT22;2632;51.666;7.146;2023-05-14T08:09:35;21.60;78.80
5226;DHT22;2632;51.666;7.146;2023-05-14T08:12:02;21.90;75.40
5226;DHT22;2632;51.666;7.146;2023-05-14T08:14:28;22.20;73.20
5226;DHT22;2632;51.666;7.146;2023-05-14T08:16:55;22.50;68.50
5226;DHT22;2632;51.666;7.146;2023-05-14T08:19:22;23.40;69.90
5226;DHT22;2632;51.666;7.146;2023-05-14T08:21:49;24.30;58.80
5226;DHT22;2632;51.666;7.146;2023-05-14T08:24:17;24.70;57.10
5226;DHT22;2632;51.666;7.146;2023-05-14T08:26:44;25.30;54.40
5226;DHT22;2632;51.666;7.146;2023-05-14T08:29:10;25.60;53.40
5226;DHT22;2632;51.666;7.146;2023-05-14T08:31:41;26.00;49.90
5226;DHT22;2632;51.666;7.146;2023-05-14T08:34:07;26.20;47.30
5226;DHT22;2632;51.666;7.146;2023-05-14T08:36:34;26.50;48.40
5226;DHT22;2632;51.666;7.146;2023-05-14T08:39:01;27.10;44.10
5226;DHT22;2632;51.666;7.146;2023-05-14T08:41:28;27.40;44.60
5226;DHT22;2632;51.666;7.146;2023-05-14T08:44:04;27.50;45.00
5226;DHT22;2632;51.666;7.146;2023-05-14T08:46:32;27.70;42.20
5226;DHT22;2632;51.666;7.146;2023-05-14T08:49:48;28.00;43.20
5226;DHT22;2632;51.666;7.146;2023-05-14T08:51:48;27.70;40.80
5226;DHT22;2632;51.666;7.146;2023-05-14T08:54:15;27.90;40.70
5226;DHT22;2632;51.666;7.146;2023-05-14T08:56:44;28.50;39.10
5226;DHT22;2632;51.666;7.146;2023-05-14T08:59:12;28.60;39.40
5226;DHT22;2632;51.666;7.146;2023-05-14T09:01:47;28.70;40.20
5226;DHT22;2632;51.666;7.146;2023-05-14T09:04:14;28.70;38.70
5226;DHT22;2632;51.666;7.146;2023-05-14T09:06:42;28.70;39.80
5226;DHT22;2632;51.666;7.146;2023-05-14T09:09:09;28.80;40.90
5226;DHT22;2632;51.666;7.146;2023-05-14T09:11:40;29.30;39.30
5226;DHT22;2632;51.666;7.146;2023-05-14T09:14:08;29.50;38.40
5226;DHT22;2632;51.666;7.146;2023-05-14T09:16:35;29.70;39.70
5226;DHT22;2632;51.666;7.146;2023-05-14T09:19:04;29.00;37.10
5226;DHT22;2632;51.666;7.146;2023-05-14T09:21:32;29.10;38.50
5226;DHT22;2632;51.666;7.146;2023-05-14T09:23:59;29.30;38.60
5226;DHT22;2632;51.666;7.146;2023-05-14T09:26:26;29.30;40.30
5226;DHT22;2632;51.666;7.146;2023-05-14T09:28:58;30.10;38.80
5226;DHT22;2632;51.666;7.146;2023-05-14T09:31:32;30.50;38.80
5226;DHT22;2632;51.666;7.146;2023-05-14T09:33:59;30.50;35.80
5226;DHT22;2632;51.666;7.146;2023-05-14T09:36:26;31.10;36.20
5226;DHT22;2632;51.666;7.146;2023-05-14T09:38:55;31.00;34.70
5226;DHT22;2632;51.666;7.146;2023-05-14T09:41:23;30.10;36.90
5226;DHT22;2632;51.666;7.146;2023-05-14T09:43:50;30.70;36.50
5226;DHT22;2632;51.666;7.146;2023-05-14T09:46:17;31.00;36.70
5226;DHT22;2632;51.666;7.146;2023-05-14T09:48:44;31.30;37.00
5226;DHT22;2632;51.666;7.146;2023-05-14T09:51:12;30.80;35.80
5226;DHT22;2632;51.666;7.146;2023-05-14T09:53:39;30.60;34.90
5226;DHT22;2632;51.666;7.146;2023-05-14T09:56:07;30.00;35.80
5226;DHT22;2632;51.666;7.146;2023-05-14T09:58:33;28.80;35.90
5226;DHT22;2632;51.666;7.146;2023-05-14T10:01:00;27.40;40.70
5226;DHT22;2632;51.666;7.146;2023-05-14T10:03:29;27.60;40.10
5226;DHT22;2632;51.666;7.146;2023-05-14T10:06:01;27.80;39.80
5226;DHT22;2632;51.666;7.146;2023-05-14T10:08:33;27.80;39.00
5226;DHT22;2632;51.666;7.146;2023-05-14T10:11:07;26.70;38.80
5226;DHT22;2632;51.666;7.146;2023-05-14T10:13:38;27.20;40.10
5226;DHT22;2632;51.666;7.146;2023-05-14T10:16:21;28.40;38.00
5226;DHT22;2632;51.666;7.146;2023-05-14T10:18:51;29.20;35.90
5226;DHT22;2632;51.666;7.146;2023-05-14T10:21:24;29.00;36.10
5226;DHT22;2632;51.666;7.146;2023-05-14T10:23:52;30.40;37.00
5226;DHT22;2632;51.666;7.146;2023-05-14T10:26:19;30.30;32.80
5226;DHT22;2632;51.666;7.146;2023-05-14T10:28:49;30.50;35.80
5226;DHT22;2632;51.666;7.146;2023-05-14T10:31:16;31.90;33.70
5226;DHT22;2632;51.666;7.146;2023-05-14T10:33:46;32.00;33.30
5226;DHT22;2632;51.666;7.146;2023-05-14T10:36:16;32.10;31.00
5226;DHT22;2632;51.666;7.146;2023-05-14T10:38:43;32.30;30.30
5226;DHT22;2632;51.666;7.146;2023-05-14T10:41:14;32.70;33.60
5226;DHT22;2632;51.666;7.146;2023-05-14T10:43:43;33.00;31.70
5226;DHT22;2632;51.666;7.146;2023-05-14T10:46:11;32.80;32.10
5226;DHT22;2632;51.666;7.146;2023-05-14T10:48:41;30.70;34.80
5226;DHT22;2632;51.666;7.146;2023-05-14T10:51:09;28.50;36.30
5226;DHT22;2632;51.666;7.146;2023-05-14T10:53:38;27.80;40.50
5226;DHT22;2632;51.666;7.146;2023-05-14T10:56:07;27.20;39.40
5226;DHT22;2632;51.666;7.146;2023-05-14T10:58:36;27.00;36.70
5226;DHT22;2632;51.666;7.146;2023-05-14T11:01:04;26.70;42.50
5226;DHT22;2632;51.666;7.146;2023-05-14T11:03:41;26.80;39.60
5226;DHT22;2632;51.666;7.146;2023-05-14T11:06:10;26.80;38.30
5226;DHT22;2632;51.666;7.146;2023-05-14T11:08:37;26.90;36.20
5226;DHT22;2632;51.666;7.146;2023-05-14T11:11:05;26.80;37.00
5226;DHT22;2632;51.666;7.146;2023-05-14T11:13:32;26.80;40.60
5226;DHT22;2632;51.666;7.146;2023-05-14T11:16:01;26.80;38.10
5226;DHT22;2632;51.666;7.146;2023-05-14T11:18:52;26.90;39.90
5226;DHT22;2632;51.666;7.146;2023-05-14T11:21:19;27.10;39.40
5226;DHT22;2632;51.666;7.146;2023-05-14T11:23:45;27.20;42.10
5226;DHT22;2632;51.666;7.146;2023-05-14T11:26:12;26.70;37.90
5226;DHT22;2632;51.666;7.146;2023-05-14T11:28:39;26.60;37.40
5226;DHT22;2632;51.666;7.146;2023-05-14T11:31:05;26.80;40.20
5226;DHT22;2632;51.666;7.146;2023-05-14T11:33:32;27.10;37.50
5226;DHT22;2632;51.666;7.146;2023-05-14T11:35:59;26.60;38.90
5226;DHT22;2632;51.666;7.146;2023-05-14T11:38:25;26.70;41.30
5226;DHT22;2632;51.666;7.146;2023-05-14T11:40:56;26.50;38.10
5226;DHT22;2632;51.666;7.146;2023-05-14T11:43:24;26.20;39.00
5226;DHT22;2632;51.666;7.146;2023-05-14T11:45:52;25.30;39.70
5226;DHT22;2632;51.666;7.146;2023-05-14T11:48:20;25.50;39.80
5226;DHT22;2632;51.666;7.146;2023-05-14T11:50:48;25.40;40.40
5226;DHT22;2632;51.666;7.146;2023-05-14T11:53:16;25.90;41.80
5226;DHT22;2632;51.666;7.146;2023-05-14T11:55:44;26.20;39.00
5226;DHT22;2632;51.666;7.146;2023-05-14T11:58:12;26.30;39.60
5226;DHT22;2632;51.666;7.146;2023-05-14T12:00:38;26.40;39.20
5226;DHT22;2632;51.666;7.146;2023-05-14T12:03:09;26.40;37.20
5226;DHT22;2632;51.666;7.146;2023-05-14T12:05:40;27.10;40.00
5226;DHT22;2632;51.666;7.146;2023-05-14T12:08:19;27.20;39.60
5226;DHT22;2632;51.666;7.146;2023-05-14T12:10:46;26.90;40.40
5226;DHT22;2632;51.666;7.146;2023-05-14T12:13:16;27.10;41.60
5226;DHT22;2632;51.666;7.146;2023-05-14T12:15:47;27.00;39.50
5226;DHT22;2632;51.666;7.146;2023-05-14T12:18:19;26.50;39.60
5226;DHT22;2632;51.666;7.146;2023-05-14T12:20:50;26.90;40.20
5226;DHT22;2632;51.666;7.146;2023-05-14T12:23:28;26.60;40.20
5226;DHT22;2632;51.666;7.146;2023-05-14T12:26:00;25.80;41.50
5226;DHT22;2632;51.666;7.146;2023-05-14T12:28:26;25.20;42.70
5226;DHT22;2632;51.666;7.146;2023-05-14T12:30:57;25.20;44.40
5226;DHT22;2632;51.666;7.146;2023-05-14T12:33:27;26.10;44.90
5226;DHT22;2632;51.666;7.146;2023-05-14T12:35:54;26.80;41.10
5226;DHT22;2632;51.666;7.146;2023-05-14T12:38:39;27.20;42.00
5226;DHT22;2632;51.666;7.146;2023-05-14T12:41:06;26.40;42.30
5226;DHT22;2632;51.666;7.146;2023-05-14T12:43:33;25.40;41.60
5226;DHT22;2632;51.666;7.146;2023-05-14T12:45:59;25.00;43.50
5226;DHT22;2632;51.666;7.146;2023-05-14T12:48:26;24.80;42.70
5226;DHT22;2632;51.666;7.146;2023-05-14T12:50:53;24.40;44.80
5226;DHT22;2632;51.666;7.146;2023-05-14T12:53:19;24.90;45.50
5226;DHT22;2632;51.666;7.146;2023-05-14T12:55:46;25.30;43.10
5226;DHT22;2632;51.666;7.146;2023-05-14T12:58:13;26.20;43.00
5226;DHT22;2632;51.666;7.146;2023-05-14T13:00:39;26.20;42.10
5226;DHT22;2632;51.666;7.146;2023-05-14T13:03:06;25.40;43.20
5226;DHT22;2632;51.666;7.146;2023-05-14T13:05:33;25.30;43.90
5226;DHT22;2632;51.666;7.146;2023-05-14T13:08:00;25.00;44.10
5226;DHT22;2632;51.666;7.146;2023-05-14T13:10:29;24.60;44.90
5226;DHT22;2632;51.666;7.146;2023-05-14T13:12:56;24.40;44.70
5226;DHT22;2632;51.666;7.146;2023-05-14T13:15:23;24.10;46.40
5226;DHT22;2632;51.666;7.146;2023-05-14T13:17:50;24.10;44.90
5226;DHT22;2632;51.666;7.146;2023-05-14T13:20:17;25.10;45.40
5226;DHT22;2632;51.666;7.146;2023-05-14T13:22:43;25.90;44.10
5226;DHT22;2632;51.666;7.146;2023-05-14T13:25:10;26.30;39.90
5226;DHT22;2632;51.666;7.146;2023-05-14T13:27:37;26.00;41.40
5226;DHT22;2632;51.666;7.146;2023-05-14T13:30:04;25.70;43.30
5226;DHT22;2632;51.666;7.146;2023-05-14T13:32:30;26.00;42.00
5226;DHT22;2632;51.666;7.146;2023-05-14T13:34:57;25.80;43.50
5226;DHT22;2632;51.666;7.146;2023-05-14T13:37:24;26.00;43.80
5226;DHT22;2632;51.666;7.146;2023-05-14T13:39:51;25.40;40.40
5226;DHT22;2632;51.666;7.146;2023-05-14T13:42:18;24.90;46.10
5226;DHT22;2632;51.666;7.146;2023-05-14T13:44:44;24.50;45.20
5226;DHT22;2632;51.666;7.146;2023-05-14T13:47:11;25.10;42.90
5226;DHT22;2632;51.666;7.146;2023-05-14T13:49:38;25.60;42.50
5226;DHT22;2632;51.666;7.146;2023-05-14T13:52:05;25.90;41.30
5226;DHT22;2632;51.666;7.146;2023-05-14T13:54:32;25.80;38.80
5226;DHT22;2632;51.666;7.146;2023-05-14T13:56:59;25.60;40.20
5226;DHT22;2632;51.666;7.146;2023-05-14T13:59:25;25.90;40.80
5226;DHT22;2632;51.666;7.146;2023-05-14T14:01:53;26.10;43.20
5226;DHT22;2632;51.666;7.146;2023-05-14T14:04:19;26.30;40.50
5226;DHT22;2632;51.666;7.146;2023-05-14T14:06:48;26.50;40.70
5226;DHT22;2632;51.666;7.146;2023-05-14T14:09:14;26.70;41.60
5226;DHT22;2632;51.666;7.146;2023-05-14T14:11:41;26.30;40.20
5226;DHT22;2632;51.666;7.146;2023-05-14T14:14:07;25.50;40.00
5226;DHT22;2632;51.666;7.146;2023-05-14T14:16:34;24.60;41.70
5226;DHT22;2632;51.666;7.146;2023-05-14T14:19:01;24.20;43.90
5226;DHT22;2632;51.666;7.146;2023-05-14T14:21:28;24.20;44.40
5226;DHT22;2632;51.666;7.146;2023-05-14T14:23:55;23.90;43.70
5226;DHT22;2632;51.666;7.146;2023-05-14T14:26:22;23.90;43.60
5226;DHT22;2632;51.666;7.146;2023-05-14T14:28:48;24.50;41.00
5226;DHT22;2632;51.666;7.146;2023-05-14T14:31:16;24.90;40.00
5226;DHT22;2632;51.666;7.146;2023-05-14T14:33:42;25.20;41.50
5226;DHT22;2632;51.666;7.146;2023-05-14T14:36:09;25.40;41.40
5226;DHT22;2632;51.666;7.146;2023-05-14T14:38:36;25.40;39.00
5226;DHT22;2632;51.666;7.146;2023-05-14T14:41:05;25.40;38.50
5226;DHT22;2632;51.666;7.146;2023-05-14T14:43:39;25.60;41.90
5226;DHT22;2632;51.666;7.146;2023-05-14T14:46:07;25.60;39.70
5226;DHT22;2632;51.666;7.146;2023-05-14T14:48:35;25.10;40.00
5226;DHT22;2632;51.666;7.146;2023-05-14T14:51:06;24.80;41.10
5226;DHT22;2632;51.666;7.146;2023-05-14T14:53:33;25.00;41.50
5226;DHT22;2632;51.666;7.146;2023-05-14T14:56:01;24.90;40.10
5226;DHT22;2632;51.666;7.146;2023-05-14T14:58:27;24.80;41.00
5226;DHT22;2632;51.666;7.146;2023-05-14T15:00:55;24.70;42.10
5226;DHT22;2632;51.666;7.146;2023-05-14T15:03:23;24.60;42.10
5226;DHT22;2632;51.666;7.146;2023-05-14T15:05:50;24.40;42.30
5226;DHT22;2632;51.666;7.146;2023-05-14T15:08:18;24.20;43.50
5226;DHT22;2632;51.666;7.146;2023-05-14T15:10:49;24.10;43.00
5226;DHT22;2632;51.666;7.146;2023-05-14T15:13:15;23.90;43.10
5226;DHT22;2632;51.666;7.146;2023-05-14T15:15:43;23.60;42.50
5226;DHT22;2632;51.666;7.146;2023-05-14T15:18:09;23.70;44.00
5226;DHT22;2632;51.666;7.146;2023-05-14T15:20:36;23.70;43.70
5226;DHT22;2632;51.666;7.146;2023-05-14T15:23:03;23.70;41.90
5226;DHT22;2632;51.666;7.146;2023-05-14T15:25:29;23.60;40.30
5226;DHT22;2632;51.666;7.146;2023-05-14T15:27:56;23.70;42.00
5226;DHT22;2632;51.666;7.146;2023-05-14T15:30:23;23.60;41.90
5226;DHT22;2632;51.666;7.146;2023-05-14T15:32:49;23.60;44.30
5226;DHT22;2632;51.666;7.146;2023-05-14T15:35:16;23.60;43.60
5226;DHT22;2632;51.666;7.146;2023-05-14T15:37:44;23.40;42.50
5226;DHT22;2632;51.666;7.146;2023-05-14T15:40:11;23.40;44.10
5226;DHT22;2632;51.666;7.146;2023-05-14T15:42:42;23.50;44.10
5226;DHT22;2632;51.666;7.146;2023-05-14T15:45:13;23.30;43.80
5226;DHT22;2632;51.666;7.146;2023-05-14T15:47:40;23.30;45.60
5226;DHT22;2632;51.666;7.146;2023-05-14T15:50:07;23.10;46.90
5226;DHT22;2632;51.666;7.146;2023-05-14T15:52:34;23.00;44.50
5226;DHT22;2632;51.666;7.146;2023-05-14T15:55:05;22.90;46.30
5226;DHT22;2632;51.666;7.146;2023-05-14T15:57:32;22.60;45.30
5226;DHT22;2632;51.666;7.146;2023-05-14T15:59:59;22.70;46.20
5226;DHT22;2632;51.666;7.146;2023-05-14T16:02:25;22.70;46.80
5226;DHT22;2632;51.666;7.146;2023-05-14T16:04:55;22.50;47.90
5226;DHT22;2632;51.666;7.146;2023-05-14T16:07:22;22.50;48.60
5226;DHT22;2632;51.666;7.146;2023-05-14T16:09:48;22.40;48.20
5226;DHT22;2632;51.666;7.146;2023-05-14T16:12:15;22.30;50.40